createdAt,value
2019-01-13T00:01:14.576Z,2.00
2019-01-13T00:03:45.220Z,2.00
2019-01-13T00:06:15.744Z,2.10
2019-01-13T00:08:46.384Z,2.30
2019-01-13T00:11:16.940Z,1.90
2019-01-13T00:13:47.664Z,2.30
2019-01-13T00:16:18.226Z,2.00
2019-01-13T00:18:48.835Z,2.10
2019-01-13T00:21:19.383Z,2.30
2019-01-13T00:23:49.969Z,2.30
2019-01-13T00:26:20.527Z,2.10
2019-01-13T00:28:51.084Z,2.30
2019-01-13T00:31:21.644Z,2.20
2019-01-13T00:33:52.379Z,2.30
2019-01-13T00:36:22.954Z,2.10
2019-01-13T00:38:53.557Z,2.40
2019-01-13T00:41:24.103Z,2.60
2019-01-13T00:43:54.681Z,2.50
2019-01-13T00:46:25.188Z,2.30
2019-01-13T00:48:55.773Z,2.30
2019-01-13T00:51:26.313Z,2.30
2019-01-13T00:53:56.864Z,2.40
2019-01-13T00:56:27.460Z,2.60
2019-01-13T00:58:58.015Z,2.30
2019-01-13T01:01:28.606Z,2.30
2019-01-13T01:03:59.117Z,2.50
2019-01-13T01:06:29.679Z,2.50
2019-01-13T01:09:00.219Z,2.40
2019-01-13T01:11:30.777Z,2.50
2019-01-13T01:14:01.293Z,2.00
2019-01-13T01:16:31.832Z,2.20
2019-01-13T01:19:02.351Z,2.30
2019-01-13T01:21:32.939Z,2.30
2019-01-13T01:24:03.473Z,2.20
2019-01-13T01:26:33.977Z,2.40
2019-01-13T01:29:04.525Z,2.30
2019-01-13T01:31:35.049Z,2.30
2019-01-13T01:34:05.571Z,2.20
2019-01-13T01:36:36.190Z,2.20
2019-01-13T01:39:08.493Z,2.20
2019-01-13T01:41:39.084Z,2.10
2019-01-13T01:44:09.616Z,2.50
2019-01-13T01:46:40.140Z,2.20
2019-01-13T01:49:10.692Z,2.40
2019-01-13T01:51:41.216Z,2.40
2019-01-13T01:54:11.775Z,2.30
2019-01-13T01:56:42.332Z,2.50
2019-01-13T01:59:12.914Z,2.20
2019-01-13T02:01:43.476Z,2.50
2019-01-13T02:04:14.171Z,2.50
2019-01-13T02:06:44.652Z,2.50
2019-01-13T02:09:15.207Z,2.40
2019-01-13T02:11:45.769Z,2.50
2019-01-13T02:14:16.344Z,2.40
2019-01-13T02:16:47.121Z,2.40
2019-01-13T02:19:17.616Z,2.60
2019-01-13T02:21:48.241Z,2.40
2019-01-13T02:24:18.753Z,2.70
2019-01-13T02:26:49.356Z,2.30
2019-01-13T02:29:19.892Z,2.60
2019-01-13T02:31:50.704Z,2.50
2019-01-13T02:34:21.288Z,2.70
2019-01-13T02:36:51.976Z,2.40
2019-01-13T02:39:22.595Z,2.60
2019-01-13T02:41:53.146Z,2.60
2019-01-13T02:44:23.700Z,2.50
2019-01-13T02:46:54.240Z,2.60
2019-01-13T02:49:24.810Z,2.70
2019-01-13T02:51:55.336Z,2.60
2019-01-13T02:54:26.140Z,2.50
2019-01-13T02:56:56.867Z,2.60
2019-01-13T02:59:27.441Z,2.50
2019-01-13T03:01:58.019Z,2.70
2019-01-13T03:04:28.557Z,2.60
2019-01-13T03:06:59.356Z,2.70
2019-01-13T03:09:29.892Z,2.50
2019-01-13T03:12:00.543Z,2.70
2019-01-13T03:14:31.070Z,2.80
2019-01-13T03:17:01.728Z,2.60
2019-01-13T03:19:32.289Z,2.60
2019-01-13T03:22:03.005Z,2.60
2019-01-13T03:24:33.572Z,2.80
2019-01-13T03:27:04.179Z,2.70
2019-01-13T03:29:34.704Z,2.70
2019-01-13T03:32:05.269Z,2.50
2019-01-13T03:34:35.823Z,2.40
2019-01-13T03:37:06.338Z,2.50
2019-01-13T03:39:36.894Z,2.80
2019-01-13T03:42:07.440Z,2.70
2019-01-13T03:44:37.977Z,2.40
2019-01-13T03:47:08.536Z,2.60
2019-01-13T03:49:39.121Z,2.70
2019-01-13T03:52:09.689Z,2.50
2019-01-13T03:54:42.573Z,2.60
2019-01-13T03:57:13.457Z,2.80
2019-01-13T03:59:43.990Z,2.70
2019-01-13T04:02:14.826Z,2.60
2019-01-13T04:04:45.409Z,2.80
2019-01-13T04:07:15.946Z,2.60
2019-01-13T04:09:46.529Z,2.70
2019-01-13T04:12:17.072Z,2.60
2019-01-13T04:14:47.646Z,2.70
2019-01-13T04:17:18.374Z,2.60
2019-01-13T04:19:48.932Z,2.50
2019-01-13T04:22:19.502Z,2.60
2019-01-13T04:24:51.124Z,2.60
2019-01-13T04:27:21.709Z,2.70
2019-01-13T04:29:52.288Z,2.60
2019-01-13T04:32:22.839Z,2.70
2019-01-13T04:34:53.413Z,2.50
2019-01-13T04:37:23.981Z,2.70
2019-01-13T04:39:54.524Z,2.80
2019-01-13T04:42:25.184Z,2.70
2019-01-13T04:44:55.780Z,2.70
2019-01-13T04:47:26.321Z,2.60
2019-01-13T04:49:56.881Z,2.70
2019-01-13T04:52:27.772Z,2.80
2019-01-13T04:54:58.465Z,2.70
2019-01-13T04:57:28.980Z,2.80
2019-01-13T04:59:59.708Z,2.80
2019-01-13T05:02:30.243Z,2.60
2019-01-13T05:05:00.756Z,2.60
2019-01-13T05:07:31.326Z,2.60
2019-01-13T05:10:01.880Z,2.80
2019-01-13T05:12:32.492Z,2.70
2019-01-13T05:15:03.071Z,2.70
2019-01-13T05:17:33.946Z,2.80
2019-01-13T05:20:05.605Z,2.70
2019-01-13T05:22:36.124Z,2.60
2019-01-13T05:25:06.933Z,2.50
2019-01-13T05:27:37.561Z,2.50
2019-01-13T05:30:22.113Z,2.80
2019-01-13T05:32:52.896Z,2.60
2019-01-13T05:35:23.432Z,2.60
2019-01-13T05:37:53.983Z,2.60
2019-01-13T05:40:24.601Z,2.50
2019-01-13T05:42:55.140Z,2.70
2019-01-13T05:45:25.771Z,2.70
2019-01-13T05:47:56.306Z,2.70
2019-01-13T05:50:26.950Z,2.60
2019-01-13T05:52:57.472Z,2.50
2019-01-13T05:55:28.127Z,2.50
2019-01-13T05:57:58.821Z,2.50
2019-01-13T06:00:34.020Z,2.50
2019-01-13T06:03:04.759Z,2.80
2019-01-13T06:05:35.285Z,2.40
2019-01-13T06:08:05.816Z,2.50
2019-01-13T06:10:36.327Z,2.60
2019-01-13T06:13:07.097Z,2.70
2019-01-13T06:15:37.640Z,2.70
2019-01-13T06:18:08.225Z,2.70
2019-01-13T06:20:38.769Z,2.90
2019-01-13T06:23:09.320Z,2.80
2019-01-13T06:25:39.985Z,2.70
2019-01-13T06:28:10.497Z,2.70
2019-01-13T06:30:41.100Z,2.80
2019-01-13T06:33:11.644Z,2.80
2019-01-13T06:35:42.200Z,2.80
2019-01-13T06:38:12.796Z,2.60
2019-01-13T06:40:43.354Z,2.80
2019-01-13T06:43:14.062Z,2.80
2019-01-13T06:45:44.612Z,2.50
2019-01-13T06:48:15.238Z,2.70
2019-01-13T06:50:45.752Z,2.70
2019-01-13T06:53:16.293Z,2.80
2019-01-13T06:55:46.884Z,2.80
2019-01-13T06:58:17.452Z,2.80
2019-01-13T07:00:48.046Z,2.80
2019-01-13T07:03:18.660Z,3.00
2019-01-13T07:05:49.204Z,3.00
2019-01-13T07:08:19.754Z,3.10
2019-01-13T07:10:50.272Z,3.00
2019-01-13T07:13:20.852Z,2.90
2019-01-13T07:15:51.657Z,3.00
2019-01-13T07:18:22.218Z,3.00
2019-01-13T07:20:52.955Z,2.90
2019-01-13T07:23:23.688Z,3.00
2019-01-13T07:25:54.279Z,2.90
2019-01-13T07:28:24.865Z,3.00
2019-01-13T07:30:55.373Z,2.90
2019-01-13T07:33:25.936Z,3.00
2019-01-13T07:35:56.500Z,3.00
2019-01-13T07:38:27.061Z,3.00
2019-01-13T07:40:57.573Z,3.00
2019-01-13T07:43:28.101Z,3.20
2019-01-13T07:45:58.741Z,3.10
2019-01-13T07:48:29.292Z,3.20
2019-01-13T07:50:59.864Z,3.20
2019-01-13T07:53:30.421Z,3.40
2019-01-13T07:56:00.997Z,3.20
2019-01-13T07:58:31.540Z,3.40
2019-01-13T08:01:02.469Z,3.20
2019-01-13T08:03:33.092Z,3.50
2019-01-13T08:06:03.597Z,3.20
2019-01-13T08:08:34.159Z,3.40
2019-01-13T08:11:04.844Z,3.20
2019-01-13T08:13:35.749Z,3.50
2019-01-13T08:16:06.305Z,3.30
2019-01-13T08:18:36.896Z,3.40
2019-01-13T08:21:07.484Z,3.30
2019-01-13T08:23:38.052Z,3.50
2019-01-13T08:26:08.628Z,3.70
2019-01-13T08:28:39.160Z,3.60
2019-01-13T08:31:09.683Z,3.40
2019-01-13T08:33:40.262Z,3.50
2019-01-13T08:36:10.785Z,3.50
2019-01-13T08:38:41.372Z,3.70
2019-01-13T08:41:12.080Z,3.90
2019-01-13T08:43:42.598Z,3.30
2019-01-13T08:46:13.241Z,3.60
2019-01-13T08:48:43.765Z,3.90
2019-01-13T08:51:14.399Z,3.90
2019-01-13T08:53:44.977Z,3.90
2019-01-13T08:56:15.592Z,3.70
2019-01-13T08:58:46.149Z,3.80
2019-01-13T09:01:16.692Z,3.70
2019-01-13T09:03:47.278Z,3.70
2019-01-13T09:06:18.012Z,4.10
2019-01-13T09:08:48.572Z,4.00
2019-01-13T09:11:19.129Z,3.70
2019-01-13T09:13:49.735Z,3.90
2019-01-13T09:16:20.286Z,4.00
2019-01-13T09:18:50.796Z,4.10
2019-01-13T09:21:21.329Z,3.80
2019-01-13T09:23:51.924Z,4.20
2019-01-13T09:26:22.494Z,3.90
2019-01-13T09:28:53.228Z,4.10
2019-01-13T09:31:23.886Z,4.10
2019-01-13T09:33:54.401Z,4.30
2019-01-13T09:36:24.992Z,4.20
2019-01-13T09:38:55.497Z,4.20
2019-01-13T09:41:26.096Z,3.90
2019-01-13T09:43:56.689Z,4.60
2019-01-13T09:46:27.216Z,4.50
2019-01-13T09:48:57.816Z,4.50
2019-01-13T09:51:28.459Z,4.50
2019-01-13T09:53:59.045Z,4.40
2019-01-13T09:56:29.579Z,4.50
2019-01-13T09:59:00.176Z,4.40
2019-01-13T10:01:30.692Z,4.30
2019-01-13T10:04:01.300Z,4.30
2019-01-13T10:06:31.816Z,4.40
2019-01-13T10:09:02.404Z,4.30
2019-01-13T10:11:32.944Z,4.20
2019-01-13T10:14:03.499Z,4.30
2019-01-13T10:16:34.072Z,4.50
2019-01-13T10:19:04.708Z,4.30
2019-01-13T10:21:35.265Z,4.30
2019-01-13T10:24:05.805Z,4.20
2019-01-13T10:26:36.402Z,4.30
2019-01-13T10:29:07.151Z,4.30
2019-01-13T10:31:37.689Z,4.40
2019-01-13T10:34:08.247Z,4.30
2019-01-13T10:36:38.830Z,4.30
2019-01-13T10:39:09.341Z,4.40
2019-01-13T10:41:39.948Z,4.40
2019-01-13T10:44:10.464Z,4.20
2019-01-13T10:46:40.996Z,4.30
2019-01-13T10:49:11.576Z,4.40
2019-01-13T10:51:42.235Z,4.70
2019-01-13T10:54:12.881Z,4.60
2019-01-13T10:56:43.669Z,4.50
2019-01-13T10:59:14.221Z,4.50
2019-01-13T11:01:44.841Z,4.40
2019-01-13T11:04:15.405Z,4.50
2019-01-13T11:06:46.092Z,4.40
2019-01-13T11:09:16.851Z,4.30
2019-01-13T11:11:47.312Z,4.40
2019-01-13T11:14:17.923Z,4.40
2019-01-13T11:16:48.634Z,4.30
2019-01-13T11:19:19.185Z,4.30
2019-01-13T11:21:49.749Z,4.50
2019-01-13T11:24:20.272Z,4.10
2019-01-13T11:26:50.804Z,4.10
2019-01-13T11:29:21.576Z,4.30
2019-01-13T11:31:52.137Z,4.10
2019-01-13T11:34:22.669Z,4.00
2019-01-13T11:36:53.271Z,4.10
2019-01-13T11:39:24.078Z,4.10
2019-01-13T11:41:54.608Z,4.30
2019-01-13T11:44:25.144Z,4.20
2019-01-13T11:46:55.732Z,4.30
2019-01-13T11:49:26.301Z,4.10
2019-01-13T11:51:56.851Z,4.20
2019-01-13T11:54:27.477Z,4.00
2019-01-13T11:56:58.036Z,4.30
2019-01-13T11:59:28.616Z,4.10
2019-01-13T12:01:59.197Z,4.20
2019-01-13T12:04:29.752Z,4.30
2019-01-13T12:07:00.312Z,4.10
2019-01-13T12:09:30.923Z,4.20
2019-01-13T12:12:09.853Z,4.40
2019-01-13T12:14:40.451Z,4.20
2019-01-13T12:17:11.029Z,4.50
2019-01-13T12:19:41.591Z,4.30
2019-01-13T12:22:12.237Z,4.30
2019-01-13T12:24:42.767Z,4.30
2019-01-13T12:27:13.324Z,4.20
2019-01-13T12:29:43.917Z,4.20
2019-01-13T12:32:14.564Z,4.20
2019-01-13T12:34:45.085Z,4.30
2019-01-13T12:37:15.887Z,4.30
2019-01-13T12:39:46.444Z,4.30
2019-01-13T12:42:17.040Z,4.20
2019-01-13T12:44:47.621Z,4.20
2019-01-13T12:47:18.364Z,4.20
2019-01-13T12:49:48.997Z,4.10
2019-01-13T12:52:19.544Z,4.30
2019-01-13T12:54:51.583Z,4.20
2019-01-13T12:57:23.449Z,4.10
2019-01-13T13:00:16.685Z,4.20
2019-01-13T13:02:47.261Z,4.20
2019-01-13T13:05:18.191Z,4.20
2019-01-13T13:07:48.764Z,4.10
2019-01-13T13:10:31.143Z,4.20
2019-01-13T13:13:01.725Z,4.10
2019-01-13T13:15:32.770Z,4.00
2019-01-13T13:18:03.408Z,4.20
2019-01-13T13:20:33.984Z,4.10
2019-01-13T13:23:06.099Z,4.10
2019-01-13T13:25:36.790Z,4.30
2019-01-13T13:28:07.484Z,4.30
2019-01-13T13:30:38.020Z,4.00
2019-01-13T13:33:10.000Z,4.00
2019-01-13T13:35:40.591Z,4.10
2019-01-13T13:38:11.176Z,4.00
2019-01-13T13:40:41.725Z,4.00
2019-01-13T13:43:12.293Z,4.10
2019-01-13T13:45:42.852Z,3.90
2019-01-13T13:48:13.384Z,3.80
2019-01-13T13:50:43.974Z,3.80
2019-01-13T13:53:14.664Z,3.70
2019-01-13T13:55:45.412Z,3.90
2019-01-13T13:58:15.930Z,3.90
2019-01-13T14:00:46.506Z,3.80
2019-01-13T14:03:17.024Z,3.80
2019-01-13T14:05:47.585Z,3.60
2019-01-13T14:08:18.140Z,3.70
2019-01-13T14:10:48.676Z,3.80
2019-01-13T14:13:19.389Z,3.80
2019-01-13T14:15:49.976Z,3.60
2019-01-13T14:18:20.496Z,3.90
2019-01-13T14:20:52.138Z,3.60
2019-01-13T14:23:22.863Z,3.70
2019-01-13T14:25:53.396Z,3.50
2019-01-13T14:28:23.953Z,3.50
2019-01-13T14:30:54.679Z,3.90
2019-01-13T14:33:25.369Z,3.60
2019-01-13T14:35:55.917Z,3.60
2019-01-13T14:38:26.541Z,3.70
2019-01-13T14:40:57.109Z,3.70
2019-01-13T14:43:27.708Z,3.70
2019-01-13T14:45:58.282Z,3.20
2019-01-13T14:48:28.837Z,3.70
2019-01-13T14:51:00.400Z,3.50
2019-01-13T14:53:30.966Z,3.60
2019-01-13T14:56:01.524Z,3.50
2019-01-13T14:58:32.100Z,3.60
2019-01-13T15:01:02.610Z,3.50
2019-01-13T15:03:34.182Z,3.80
2019-01-13T15:06:04.766Z,3.60
2019-01-13T15:08:37.249Z,3.50
2019-01-13T15:11:16.356Z,3.50
2019-01-13T15:13:46.956Z,3.50
2019-01-13T15:16:19.319Z,3.70
2019-01-13T15:18:50.849Z,3.50
2019-01-13T15:21:24.260Z,3.60
2019-01-13T15:23:58.660Z,3.60
2019-01-13T15:26:36.136Z,3.80
2019-01-13T15:29:06.648Z,3.70
2019-01-13T15:31:37.331Z,3.60
2019-01-13T15:34:07.917Z,3.60
2019-01-13T15:36:38.466Z,3.70
2019-01-13T15:39:09.959Z,3.50
2019-01-13T15:41:40.518Z,3.50
2019-01-13T15:44:11.057Z,3.70
2019-01-13T15:46:41.619Z,3.70
2019-01-13T15:49:12.324Z,3.40
2019-01-13T15:51:43.009Z,3.40
2019-01-13T15:54:13.728Z,3.40
2019-01-13T15:56:44.348Z,3.40
2019-01-13T15:59:14.966Z,3.30
2019-01-13T16:01:45.632Z,3.30
2019-01-13T16:04:16.257Z,3.40
2019-01-13T16:06:46.841Z,3.20
2019-01-13T16:09:17.441Z,3.30
2019-01-13T16:11:48.009Z,3.40
2019-01-13T16:14:18.635Z,3.30
2019-01-13T16:16:49.159Z,3.30
2019-01-13T16:19:19.690Z,3.50
2019-01-13T16:21:50.290Z,3.30
2019-01-13T16:24:20.812Z,3.40
2019-01-13T16:26:52.039Z,3.40
2019-01-13T16:29:22.617Z,3.60
2019-01-13T16:31:53.290Z,3.20
2019-01-13T16:34:24.047Z,3.20
2019-01-13T16:36:54.576Z,3.30
2019-01-13T16:39:25.130Z,3.30
2019-01-13T16:41:58.004Z,3.40
2019-01-13T16:44:28.830Z,3.30
2019-01-13T16:46:59.391Z,3.30
2019-01-13T16:49:29.995Z,3.40
2019-01-13T16:52:00.595Z,3.20
2019-01-13T16:54:31.203Z,3.20
2019-01-13T16:57:01.759Z,3.30
2019-01-13T16:59:32.284Z,3.20
2019-01-13T17:02:02.868Z,3.30
2019-01-13T17:04:33.816Z,3.30
2019-01-13T17:07:04.537Z,3.30
2019-01-13T17:09:35.277Z,2.80
2019-01-13T17:12:06.146Z,3.40
2019-01-13T17:14:37.522Z,3.20
2019-01-13T17:17:08.343Z,3.10
2019-01-13T17:19:39.057Z,3.20
2019-01-13T17:22:10.254Z,3.20
2019-01-13T17:24:45.237Z,3.30
2019-01-13T17:27:15.824Z,3.40
2019-01-13T17:29:46.413Z,3.30
2019-01-13T17:32:16.953Z,3.20
2019-01-13T17:34:47.484Z,3.10
2019-01-13T17:37:18.023Z,3.40
2019-01-13T17:39:48.615Z,3.40
2019-01-13T17:42:19.205Z,3.20
2019-01-13T18:01:41.686Z,3.00
2019-01-13T18:04:12.272Z,3.20
2019-01-13T18:06:43.014Z,3.30
2019-01-13T18:09:13.720Z,3.20
2019-01-13T18:11:44.282Z,3.20
2019-01-13T18:14:15.063Z,3.20
2019-01-13T18:16:45.608Z,3.10
2019-01-13T18:19:16.195Z,3.20
2019-01-13T18:21:46.988Z,3.30
2019-01-13T18:24:17.763Z,3.20
2019-01-13T18:26:48.537Z,3.20
2019-01-13T18:29:19.403Z,3.20
2019-01-13T18:31:50.028Z,3.40
2019-01-13T18:34:20.654Z,3.50
2019-01-13T18:36:51.365Z,3.30
2019-01-13T18:39:22.316Z,3.30
2019-01-13T18:41:53.180Z,3.50
2019-01-13T18:44:23.917Z,3.30
2019-01-13T18:46:54.502Z,3.20
2019-01-13T18:49:25.037Z,3.20
2019-01-13T18:51:55.536Z,3.10
2019-01-13T18:54:26.104Z,3.20
2019-01-13T18:56:56.668Z,3.20
2019-01-13T18:59:27.217Z,3.30
2019-01-13T19:01:57.768Z,3.30
2019-01-13T19:04:28.492Z,3.00
2019-01-13T19:06:59.116Z,3.20
2019-01-13T19:09:29.713Z,3.10
2019-01-13T19:12:00.261Z,3.30
2019-01-13T19:14:42.335Z,3.00
2019-01-13T19:17:14.473Z,3.20
2019-01-13T19:19:56.453Z,3.10
2019-01-13T19:22:28.884Z,3.00
2019-01-13T19:25:22.613Z,3.30
2019-01-13T19:27:53.184Z,3.40
2019-01-13T19:30:23.746Z,3.20
2019-01-13T19:32:54.388Z,3.10
2019-01-13T19:35:24.919Z,3.10
2019-01-13T19:37:55.508Z,3.10
2019-01-13T19:40:26.124Z,3.10
2019-01-13T19:42:56.896Z,3.20
2019-01-13T19:45:27.650Z,3.10
2019-01-13T19:47:58.365Z,2.90
2019-01-13T19:50:29.126Z,3.10
2019-01-13T19:53:00.536Z,3.10
2019-01-13T19:55:31.156Z,3.00
2019-01-13T19:58:01.696Z,3.00
2019-01-13T20:00:34.237Z,2.90
2019-01-13T20:03:05.248Z,2.90
2019-01-13T20:05:35.827Z,2.70
2019-01-13T20:08:06.385Z,2.80
2019-01-13T20:10:37.067Z,3.00
2019-01-13T20:13:07.667Z,2.90
2019-01-13T20:15:38.234Z,2.80
2019-01-13T20:18:08.828Z,2.70
2019-01-13T20:20:39.396Z,2.90
2019-01-13T20:23:09.918Z,2.60
2019-01-13T20:25:40.496Z,2.70
2019-01-13T20:28:11.020Z,2.60
2019-01-13T20:30:41.625Z,2.60
2019-01-13T20:33:12.171Z,2.30
2019-01-13T20:35:42.705Z,2.70
2019-01-13T20:38:13.304Z,2.50
2019-01-13T20:40:43.856Z,2.40
2019-01-13T20:43:14.397Z,2.30
2019-01-13T20:45:44.973Z,2.40
2019-01-13T20:48:15.501Z,2.30
2019-01-13T20:50:46.137Z,2.20
2019-01-13T20:53:16.724Z,2.20
2019-01-13T20:55:47.516Z,2.10
2019-01-13T20:58:18.223Z,2.10
2019-01-13T21:00:48.817Z,2.20
2019-01-13T21:03:19.568Z,2.20
2019-01-13T21:05:50.431Z,2.30
2019-01-13T21:08:20.985Z,2.40
2019-01-13T21:10:51.569Z,2.20
2019-01-13T21:13:22.384Z,2.20
2019-01-13T21:15:55.435Z,2.20
2019-01-13T21:19:26.862Z,2.40
2019-01-13T21:21:57.396Z,2.30
2019-01-13T21:24:28.135Z,2.20
2019-01-13T21:26:58.692Z,2.30
2019-01-13T21:29:29.445Z,2.30
2019-01-13T21:31:59.981Z,2.20
2019-01-13T21:34:30.514Z,2.10
2019-01-13T21:37:01.104Z,2.10
2019-01-13T21:39:31.713Z,2.10
2019-01-13T21:42:02.288Z,2.50
2019-01-13T21:44:32.880Z,2.40
2019-01-13T21:48:11.595Z,2.20
2019-01-13T21:50:42.142Z,2.40
2019-01-13T21:53:12.663Z,2.40
2019-01-13T21:55:43.188Z,2.30
2019-01-13T21:58:13.739Z,2.40
2019-01-13T22:00:44.316Z,2.50
2019-01-13T22:03:15.920Z,2.50
2019-01-13T22:05:46.465Z,2.40
2019-01-13T22:08:17.020Z,2.40
2019-01-13T22:10:47.818Z,2.30
2019-01-13T22:13:18.541Z,2.40
2019-01-13T22:15:49.364Z,2.50
2019-01-13T22:18:19.988Z,2.60
2019-01-13T22:20:50.626Z,2.60
2019-01-13T22:23:21.189Z,2.80
2019-01-13T22:25:51.776Z,2.70
2019-01-13T22:28:22.603Z,2.60
2019-01-13T22:30:53.165Z,2.60
2019-01-13T22:33:23.788Z,2.60
2019-01-13T22:35:54.413Z,2.60
2019-01-13T22:38:25.140Z,2.80
2019-01-13T22:40:55.826Z,2.70
2019-01-13T22:43:26.535Z,2.70
2019-01-13T22:45:57.285Z,2.80
2019-01-13T22:48:27.971Z,2.90
2019-01-13T22:50:58.519Z,2.90
2019-01-13T22:53:29.230Z,2.80
2019-01-13T22:55:59.817Z,3.10
2019-01-13T22:58:30.424Z,2.90
2019-01-13T23:01:17.124Z,3.00
2019-01-13T23:03:48.277Z,3.10
2019-01-13T23:06:18.983Z,3.00
2019-01-13T23:08:49.635Z,2.80
2019-01-13T23:11:20.301Z,3.00
2019-01-13T23:13:50.895Z,3.00
2019-01-13T23:16:21.487Z,2.90
2019-01-13T23:18:52.172Z,2.90
2019-01-13T23:21:22.750Z,3.00
2019-01-13T23:23:53.404Z,3.10
2019-01-13T23:26:24.100Z,2.90
2019-01-13T23:28:54.672Z,2.80
2019-01-13T23:31:25.300Z,2.80
2019-01-13T23:33:55.951Z,3.10
2019-01-13T23:36:26.460Z,3.00
2019-01-13T23:38:57.232Z,2.70
2019-01-13T23:41:28.089Z,3.00
2019-01-13T23:43:59.065Z,2.80
2019-01-13T23:46:29.813Z,2.90
2019-01-13T23:49:00.644Z,2.90
2019-01-13T23:51:31.200Z,3.00
2019-01-13T23:54:01.801Z,2.80
2019-01-13T23:56:32.332Z,2.90
2019-01-13T23:59:02.884Z,2.90
